createdAt,value
2019-04-14T00:01:37.645Z,30.03
2019-04-14T00:04:09.444Z,30.83
2019-04-14T00:06:40.289Z,30.33
2019-04-14T00:09:11.783Z,29.80
2019-04-14T00:11:41.356Z,32.70
2019-04-14T00:14:11.700Z,31.13
2019-04-14T00:16:41.012Z,36.73
2019-04-14T00:19:10.836Z,33.07
2019-04-14T00:21:41.034Z,31.67
2019-04-14T00:24:10.116Z,34.17
2019-04-14T00:26:40.215Z,32.37
2019-04-14T00:29:09.206Z,31.37
2019-04-14T00:31:39.119Z,28.73
2019-04-14T00:34:09.837Z,28.93
2019-04-14T00:36:41.541Z,31.83
2019-04-14T00:39:12.400Z,34.33
2019-04-14T00:41:48.881Z,29.23
2019-04-14T00:44:14.654Z,32.40
2019-04-14T00:46:45.351Z,31.13
2019-04-14T00:49:15.654Z,33.60
2019-04-14T00:51:46.006Z,31.03
2019-04-14T00:54:15.477Z,35.63
2019-04-14T00:56:47.694Z,35.70
2019-04-14T00:59:17.729Z,36.10
2019-04-14T01:01:46.877Z,37.07
2019-04-14T01:04:16.538Z,35.80
2019-04-14T01:06:46.831Z,37.30
2019-04-14T01:09:17.167Z,40.13
2019-04-14T01:11:46.516Z,43.50
2019-04-14T01:14:16.859Z,39.20
2019-04-14T01:16:47.255Z,39.50
2019-04-14T01:19:17.632Z,47.37
2019-04-14T01:21:48.028Z,42.03
2019-04-14T01:24:17.100Z,38.43
2019-04-14T01:26:46.383Z,39.37
2019-04-14T01:29:16.493Z,42.97
2019-04-14T01:31:45.549Z,44.33
2019-04-14T01:34:15.167Z,43.53
2019-04-14T01:36:45.321Z,35.73
2019-04-14T01:39:15.383Z,32.60
2019-04-14T01:41:45.560Z,30.07
2019-04-14T01:44:15.618Z,30.07
2019-04-14T01:46:45.587Z,32.37
2019-04-14T01:49:15.699Z,28.97
2019-04-14T01:51:46.417Z,31.63
2019-04-14T01:54:17.164Z,30.33
2019-04-14T01:56:47.740Z,29.83
2019-04-14T01:59:17.451Z,27.83
2019-04-14T02:01:48.089Z,27.87
2019-04-14T02:04:18.137Z,26.40
2019-04-14T02:06:48.326Z,29.53
2019-04-14T02:09:18.562Z,31.90
2019-04-14T02:11:48.745Z,33.03
2019-04-14T02:14:18.992Z,29.67
2019-04-14T02:16:52.636Z,30.30
2019-04-14T02:19:19.825Z,37.77
2019-04-14T02:21:49.890Z,31.43
2019-04-14T02:24:20.004Z,37.67
2019-04-14T02:26:50.177Z,36.17
2019-04-14T02:29:19.264Z,29.53
2019-04-14T02:32:17.593Z,25.63
2019-04-14T02:34:47.996Z,32.90
2019-04-14T02:37:24.175Z,31.27
2019-04-14T02:40:05.302Z,28.13
2019-04-14T02:42:32.611Z,33.80
2019-04-14T02:49:51.407Z,37.67
2019-04-14T02:52:22.287Z,30.57
2019-04-14T02:57:27.151Z,32.53
2019-04-14T03:00:09.384Z,28.47
2019-04-14T03:02:36.891Z,31.30
2019-04-14T03:04:56.395Z,29.03
2019-04-14T03:12:31.532Z,31.27
2019-04-14T03:15:23.978Z,32.70
2019-04-14T03:18:00.566Z,34.00
2019-04-14T03:20:28.093Z,42.30
2019-04-14T03:22:59.142Z,40.17
2019-04-14T03:25:22.813Z,43.17
2019-04-14T03:28:06.954Z,33.57
2019-04-14T03:31:03.992Z,32.40
2019-04-14T03:33:32.170Z,40.63
2019-04-14T03:36:09.021Z,27.67
2019-04-14T03:40:45.081Z,33.07
2019-04-14T03:43:18.371Z,37.63
2019-04-14T03:50:50.174Z,48.40
2019-04-14T03:53:22.168Z,47.30
2019-04-14T03:55:33.216Z,47.97
2019-04-14T03:57:54.095Z,43.07
2019-04-14T04:00:24.568Z,36.30
2019-04-14T04:02:53.933Z,39.27
2019-04-14T04:05:23.800Z,50.67
2019-04-14T04:07:53.847Z,50.43
2019-04-14T04:10:23.115Z,48.10
2019-04-14T04:12:53.232Z,53.97
2019-04-14T04:15:23.446Z,46.63
2019-04-14T04:21:23.474Z,55.93
2019-04-14T04:23:55.352Z,62.20
2019-04-14T04:26:25.717Z,56.00
2019-04-14T04:28:58.366Z,61.37
2019-04-14T04:31:29.330Z,51.57
2019-04-14T04:34:01.063Z,68.73
2019-04-14T04:36:32.069Z,64.43
2019-04-14T04:39:03.941Z,56.20
2019-04-14T04:41:33.974Z,53.80
2019-04-14T04:44:03.301Z,48.73
2019-04-14T04:46:33.116Z,53.03
2019-04-14T04:49:09.816Z,51.80
2019-04-14T04:51:33.347Z,45.57
2019-04-14T04:54:03.865Z,41.37
2019-04-14T04:56:34.063Z,35.67
2019-04-14T04:59:03.617Z,31.17
2019-04-14T05:01:33.798Z,36.33
2019-04-14T05:04:03.218Z,33.03
2019-04-14T05:06:35.081Z,34.37
2019-04-14T05:09:07.949Z,33.40
2019-04-14T05:11:38.887Z,32.40
2019-04-14T05:14:10.868Z,28.63
2019-04-14T05:16:48.484Z,28.30
2019-04-14T05:19:25.774Z,33.23
2019-04-14T05:21:49.434Z,28.60
2019-04-14T05:24:19.974Z,26.67
2019-04-14T05:26:50.531Z,24.73
2019-04-14T05:29:20.997Z,26.27
2019-04-14T05:31:51.317Z,22.90
2019-04-14T05:34:21.371Z,23.37
2019-04-14T05:36:52.068Z,29.40
2019-04-14T05:39:22.040Z,28.37
2019-04-14T05:42:00.476Z,67.03
2019-04-14T05:44:23.071Z,89.47
2019-04-14T05:46:52.101Z,191.87
2019-04-14T05:49:30.660Z,391.63
2019-04-14T05:51:52.498Z,544.73
2019-04-14T05:54:23.055Z,842.67
2019-04-14T05:56:52.284Z,696.80
2019-04-14T05:59:22.000Z,1011.20
2019-04-14T06:01:51.199Z,1145.27
2019-04-14T06:04:20.525Z,1173.77
2019-04-14T06:06:49.851Z,1066.53
2019-04-14T06:09:19.328Z,1742.97
2019-04-14T06:11:48.494Z,1712.60
2019-04-14T06:14:17.907Z,1999.90
2019-04-14T06:16:47.062Z,1958.37
2019-04-14T06:19:16.378Z,1999.90
2019-04-14T06:21:45.465Z,1999.90
2019-04-14T06:24:14.416Z,1999.90
2019-04-14T06:26:43.453Z,1999.90
2019-04-14T06:29:12.494Z,1923.67
2019-04-14T06:31:43.182Z,1999.90
2019-04-14T06:34:13.833Z,1703.73
2019-04-14T06:36:44.463Z,1999.90
2019-04-14T06:39:15.132Z,1977.90
2019-04-14T06:41:44.249Z,1424.73
2019-04-14T06:44:13.193Z,1688.00
2019-04-14T06:46:44.336Z,1236.77
2019-04-14T06:49:13.493Z,1999.90
2019-04-14T06:51:42.457Z,1623.33
2019-04-14T06:54:11.470Z,1811.17
2019-04-14T06:56:41.695Z,1993.10
2019-04-14T06:59:10.673Z,1999.90
2019-04-14T07:01:39.781Z,1240.40
2019-04-14T07:04:08.907Z,1343.17
2019-04-14T07:06:37.942Z,1602.10
2019-04-14T07:09:07.126Z,1988.67
2019-04-14T07:11:36.150Z,1999.90
2019-04-14T07:14:05.151Z,1999.90
2019-04-14T07:16:34.178Z,1969.13
2019-04-14T07:19:03.203Z,1999.90
2019-04-14T07:21:32.231Z,1639.03
2019-04-14T07:24:02.932Z,1283.83
2019-04-14T07:26:31.954Z,1118.60
2019-04-14T07:29:01.027Z,858.43
2019-04-14T07:31:31.706Z,892.60
2019-04-14T07:34:02.352Z,1067.50
2019-04-14T07:36:33.027Z,991.83
2019-04-14T07:39:03.685Z,1080.80
2019-04-14T07:41:35.434Z,942.50
2019-04-14T07:44:04.383Z,824.43
2019-04-14T07:46:35.102Z,1239.33
2019-04-14T07:49:05.742Z,774.57
2019-04-14T07:51:36.407Z,822.50
2019-04-14T07:54:07.058Z,1643.37
2019-04-14T07:56:37.807Z,812.90
2019-04-14T07:59:08.415Z,1492.80
2019-04-14T08:01:39.090Z,1824.83
2019-04-14T08:04:09.743Z,873.23
2019-04-14T08:06:38.757Z,831.57
2019-04-14T08:09:08.775Z,990.60
2019-04-14T08:11:37.785Z,982.80
2019-04-14T08:14:06.744Z,1348.97
2019-04-14T08:16:35.753Z,1999.90
2019-04-14T08:19:04.812Z,1426.60
2019-04-14T08:21:33.823Z,1061.53
2019-04-14T08:24:03.087Z,1999.90
2019-04-14T08:26:32.148Z,1911.73
2019-04-14T08:29:01.164Z,1380.83
2019-04-14T08:31:30.534Z,1195.23
2019-04-14T08:33:59.878Z,1665.33
2019-04-14T08:36:29.230Z,1997.47
2019-04-14T08:38:58.574Z,926.77
2019-04-14T08:41:29.476Z,1570.80
2019-04-14T08:44:00.396Z,911.90
2019-04-14T08:46:31.167Z,1813.17
2019-04-14T08:49:02.139Z,1547.13
2019-04-14T08:51:33.026Z,876.03
2019-04-14T08:54:03.835Z,1374.33
2019-04-14T08:56:33.215Z,1014.13
2019-04-14T08:59:04.294Z,1409.43
2019-04-14T09:01:35.195Z,1051.43
2019-04-14T09:04:06.135Z,1216.47
2019-04-14T09:06:37.026Z,852.23
2019-04-14T09:09:08.492Z,973.43
2019-04-14T09:11:39.402Z,884.33
2019-04-14T09:14:08.706Z,1029.40
2019-04-14T09:16:38.135Z,853.67
2019-04-14T09:19:08.127Z,853.63
2019-04-14T09:21:37.361Z,921.27
2019-04-14T09:24:07.327Z,1184.57
2019-04-14T09:26:36.360Z,842.00
2019-04-14T09:29:05.362Z,881.10
2019-04-14T09:31:34.604Z,854.63
2019-04-14T09:34:03.621Z,818.57
2019-04-14T09:36:32.651Z,891.97
2019-04-14T09:39:02.778Z,1093.10
2019-04-14T09:41:33.440Z,893.33
2019-04-14T09:44:02.519Z,953.13
2019-04-14T09:46:31.630Z,837.03
2019-04-14T09:49:01.596Z,1948.57
2019-04-14T09:51:30.628Z,1053.23
2019-04-14T09:53:59.623Z,1334.20
2019-04-14T09:56:28.650Z,769.30
2019-04-14T09:58:57.757Z,923.57
2019-04-14T10:01:26.794Z,817.90
2019-04-14T10:03:55.821Z,1999.90
2019-04-14T10:06:24.848Z,988.53
2019-04-14T10:08:53.857Z,1426.30
2019-04-14T10:11:22.889Z,824.13
2019-04-14T10:13:51.911Z,935.40
2019-04-14T10:16:20.949Z,1040.23
2019-04-14T10:18:49.945Z,1658.27
2019-04-14T10:21:19.094Z,1469.67
2019-04-14T10:23:48.119Z,1323.67
2019-04-14T10:26:17.196Z,1047.87
2019-04-14T10:28:46.200Z,1999.90
2019-04-14T10:31:15.226Z,1989.23
2019-04-14T10:33:44.319Z,1256.20
2019-04-14T10:36:13.412Z,997.00
2019-04-14T10:38:42.399Z,886.17
2019-04-14T10:41:11.490Z,1041.20
2019-04-14T10:43:40.498Z,1124.87
2019-04-14T10:46:09.771Z,1318.97
2019-04-14T10:48:38.776Z,881.20
2019-04-14T10:51:07.799Z,855.77
2019-04-14T10:53:36.994Z,1209.77
2019-04-14T10:56:06.170Z,894.63
2019-04-14T10:58:35.202Z,1999.90
2019-04-14T11:01:04.298Z,1702.53
2019-04-14T11:03:33.324Z,879.37
2019-04-14T11:06:04.051Z,939.87
2019-04-14T11:08:33.080Z,1992.43
2019-04-14T11:11:02.024Z,1093.93
2019-04-14T11:13:31.112Z,1999.90
2019-04-14T11:16:00.126Z,955.77
2019-04-14T11:18:29.144Z,1035.63
2019-04-14T11:20:58.120Z,1173.33
2019-04-14T11:23:27.176Z,1150.90
2019-04-14T11:25:56.190Z,1500.43
2019-04-14T11:28:25.159Z,1051.60
2019-04-14T11:30:54.155Z,1999.90
2019-04-14T11:33:24.909Z,1491.33
2019-04-14T11:35:55.640Z,1999.90
2019-04-14T11:38:26.308Z,1398.03
2019-04-14T11:40:56.948Z,1999.90
2019-04-14T11:43:26.074Z,1966.60
2019-04-14T11:45:55.282Z,1518.77
2019-04-14T11:48:24.575Z,1999.90
2019-04-14T11:50:53.534Z,1999.90
2019-04-14T11:53:22.697Z,1357.50
2019-04-14T11:55:51.677Z,1248.03
2019-04-14T11:58:20.729Z,1150.57
2019-04-14T12:00:51.378Z,1346.70
2019-04-14T12:03:22.290Z,1999.90
2019-04-14T12:05:52.980Z,1999.90
2019-04-14T12:08:23.710Z,1525.33
2019-04-14T12:10:52.717Z,1709.03
2019-04-14T12:13:21.681Z,973.13
2019-04-14T12:15:50.693Z,1999.90
2019-04-14T12:18:19.700Z,1079.63
2019-04-14T12:20:48.681Z,1074.33
2019-04-14T12:23:17.695Z,1303.37
2019-04-14T12:25:46.727Z,1223.30
2019-04-14T12:28:17.341Z,1781.33
2019-04-14T12:30:46.802Z,1684.23
2019-04-14T12:33:15.839Z,1493.63
2019-04-14T12:35:44.904Z,1999.90
2019-04-14T12:38:14.023Z,1610.73
2019-04-14T12:40:44.182Z,1999.90
2019-04-14T12:43:15.033Z,1479.97
2019-04-14T12:45:44.379Z,1999.90
2019-04-14T12:48:15.099Z,1025.20
2019-04-14T12:50:45.782Z,1999.90
2019-04-14T12:53:14.781Z,1431.77
2019-04-14T12:55:44.074Z,1999.90
2019-04-14T12:58:14.740Z,1133.27
2019-04-14T13:00:45.504Z,1667.40
2019-04-14T13:03:14.686Z,1541.27
2019-04-14T13:05:43.689Z,1781.90
2019-04-14T13:08:12.653Z,1859.73
2019-04-14T13:10:41.811Z,1155.87
2019-04-14T13:13:12.030Z,1881.20
2019-04-14T13:15:41.115Z,1999.90
2019-04-14T13:18:10.194Z,1999.90
2019-04-14T13:20:39.245Z,1999.90
2019-04-14T13:23:08.446Z,1999.90
2019-04-14T13:25:37.535Z,1999.90
2019-04-14T13:28:06.539Z,1999.90
2019-04-14T13:30:37.309Z,1999.90
2019-04-14T13:33:06.309Z,1999.90
2019-04-14T13:35:35.320Z,1999.90
2019-04-14T13:38:04.435Z,1994.03
2019-04-14T13:40:33.461Z,1952.87
2019-04-14T13:43:02.527Z,1988.70
2019-04-14T13:45:31.620Z,1999.90
2019-04-14T13:48:00.661Z,1999.90
2019-04-14T13:50:29.749Z,1999.90
2019-04-14T13:52:58.804Z,1999.90
2019-04-14T13:55:27.833Z,1999.90
2019-04-14T13:57:56.856Z,1999.90
2019-04-14T14:00:26.025Z,1999.90
2019-04-14T14:02:55.042Z,1999.90
2019-04-14T14:05:23.975Z,1999.90
2019-04-14T14:07:52.996Z,1999.90
2019-04-14T14:10:22.082Z,1999.90
2019-04-14T14:12:52.791Z,1859.27
2019-04-14T14:15:23.446Z,1999.90
2019-04-14T14:17:54.140Z,1999.90
2019-04-14T14:20:24.780Z,1962.53
2019-04-14T14:22:59.627Z,1999.90
2019-04-14T14:25:26.022Z,1999.90
2019-04-14T14:27:55.054Z,1999.90
2019-04-14T14:30:24.075Z,1673.50
2019-04-14T14:32:53.121Z,1532.67
2019-04-14T14:35:22.135Z,1999.90
2019-04-14T14:37:51.167Z,1999.90
2019-04-14T14:40:20.174Z,1999.90
2019-04-14T14:42:49.250Z,1999.90
2019-04-14T14:45:19.895Z,1999.90
2019-04-14T14:47:50.560Z,1999.90
2019-04-14T14:50:21.162Z,1999.90
2019-04-14T14:52:50.178Z,1999.90
2019-04-14T14:55:19.185Z,1999.90
2019-04-14T14:57:48.195Z,1999.90
2019-04-14T15:00:18.942Z,1999.90
2019-04-14T15:02:47.953Z,1999.90
2019-04-14T15:05:16.914Z,1999.90
2019-04-14T15:07:45.940Z,1999.90
2019-04-14T15:10:14.973Z,1999.90
2019-04-14T15:12:43.992Z,1999.90
2019-04-14T15:15:13.097Z,1999.90
2019-04-14T15:17:42.264Z,1999.90
2019-04-14T15:20:11.362Z,1999.90
2019-04-14T15:22:40.463Z,1999.90
2019-04-14T15:25:09.561Z,1371.93
2019-04-14T15:27:38.581Z,1685.50
2019-04-14T15:30:09.162Z,1689.90
2019-04-14T15:32:38.185Z,1999.90
2019-04-14T15:35:07.282Z,1538.17
2019-04-14T15:37:36.300Z,1601.07
2019-04-14T15:40:06.295Z,1433.03
2019-04-14T15:42:35.302Z,1304.23
2019-04-14T15:45:04.497Z,1277.23
2019-04-14T15:47:33.582Z,1568.93
2019-04-14T15:50:02.609Z,1893.13
2019-04-14T15:52:31.673Z,1690.07
2019-04-14T15:55:00.645Z,1516.17
2019-04-14T15:57:31.292Z,1442.57
2019-04-14T16:00:01.907Z,899.60
2019-04-14T16:02:32.689Z,1194.63
2019-04-14T16:05:01.685Z,1519.53
2019-04-14T16:07:32.414Z,1139.43
2019-04-14T16:10:01.501Z,1020.97
2019-04-14T16:12:32.845Z,1385.80
2019-04-14T16:15:03.655Z,1004.43
2019-04-14T16:17:35.439Z,1213.00
2019-04-14T16:20:07.455Z,1368.80
2019-04-14T16:22:38.895Z,1493.23
2019-04-14T16:25:07.257Z,864.07
2019-04-14T16:27:38.497Z,1123.13
2019-04-14T16:30:10.106Z,934.83
2019-04-14T16:32:40.820Z,764.83
2019-04-14T16:35:12.647Z,875.70
2019-04-14T16:37:41.733Z,982.53
2019-04-14T16:40:10.825Z,1667.53
2019-04-14T16:42:39.921Z,964.20
2019-04-14T16:45:09.258Z,1094.20
2019-04-14T16:47:39.879Z,874.00
2019-04-14T16:50:09.084Z,907.97
2019-04-14T16:52:39.800Z,852.60
2019-04-14T16:55:10.530Z,1118.83
2019-04-14T16:57:41.279Z,863.37
2019-04-14T17:03:14.698Z,802.23
2019-04-14T17:05:43.736Z,879.83
2019-04-14T17:08:12.736Z,1105.77
2019-04-14T17:10:41.795Z,1117.03
2019-04-14T17:13:10.936Z,1107.47
2019-04-14T17:15:41.623Z,1332.87
2019-04-14T17:18:12.388Z,1257.63
2019-04-14T17:20:44.105Z,1464.43
2019-04-14T17:23:14.808Z,1115.97
2019-04-14T17:25:45.514Z,1335.67
2019-04-14T17:28:16.188Z,1229.13
2019-04-14T17:30:46.865Z,1670.13
2019-04-14T17:33:17.594Z,1553.23
2019-04-14T17:35:48.257Z,1376.10
2019-04-14T17:38:18.938Z,824.17
2019-04-14T17:40:49.668Z,1193.03
2019-04-14T17:43:21.350Z,789.87
2019-04-14T17:45:52.139Z,881.97
2019-04-14T17:48:23.310Z,1017.17
2019-04-14T17:50:54.026Z,827.90
2019-04-14T17:53:24.784Z,879.83
2019-04-14T17:55:55.508Z,700.03
2019-04-14T17:58:26.245Z,735.20
2019-04-14T18:00:56.966Z,859.50
2019-04-14T18:03:51.250Z,917.67
2019-04-14T18:06:22.797Z,610.57
2019-04-14T18:08:53.476Z,701.73
2019-04-14T18:11:24.188Z,847.13
2019-04-14T18:13:54.850Z,971.40
2019-04-14T18:16:25.513Z,1085.30
2019-04-14T18:18:56.248Z,794.20
2019-04-14T18:21:25.248Z,915.50
2019-04-14T18:23:54.287Z,951.83
2019-04-14T18:26:23.657Z,813.43
2019-04-14T18:28:54.338Z,724.23
2019-04-14T18:31:25.000Z,1068.93
2019-04-14T18:33:55.689Z,923.10
2019-04-14T18:36:26.333Z,987.23
2019-04-14T18:38:57.061Z,948.40
2019-04-14T18:41:27.727Z,1000.00
2019-04-14T18:43:58.412Z,1042.27
2019-04-14T18:46:29.056Z,1036.37
2019-04-14T18:48:59.759Z,914.77
2019-04-14T18:51:30.421Z,1015.33
2019-04-14T18:54:01.113Z,997.73
2019-04-14T18:56:31.865Z,1198.03
2019-04-14T18:59:02.646Z,1172.93
2019-04-14T19:01:33.329Z,790.40
2019-04-14T19:04:02.599Z,986.13
2019-04-14T19:06:31.678Z,1141.00
2019-04-14T19:09:00.741Z,1172.70
2019-04-14T19:11:33.357Z,619.53
2019-04-14T19:14:03.398Z,943.07
2019-04-14T19:16:39.896Z,1226.20
2019-04-14T19:19:05.194Z,1126.40
2019-04-14T19:21:34.222Z,933.73
2019-04-14T19:24:03.316Z,1131.30
2019-04-14T19:26:32.339Z,1023.40
2019-04-14T19:29:01.300Z,1271.83
2019-04-14T19:31:30.564Z,1227.30
2019-04-14T19:33:59.689Z,1018.47
2019-04-14T19:36:28.857Z,1171.07
2019-04-14T19:38:57.894Z,1145.40
2019-04-14T19:41:26.966Z,1155.83
2019-04-14T19:43:55.961Z,1045.77
2019-04-14T19:46:24.979Z,993.43
2019-04-14T19:48:54.005Z,1196.63
2019-04-14T19:51:22.967Z,1110.93
2019-04-14T19:53:52.435Z,1221.73
2019-04-14T19:56:21.559Z,1105.20
2019-04-14T19:58:50.567Z,1099.07
2019-04-14T20:01:19.625Z,1178.63
2019-04-14T20:03:48.646Z,1274.63
2019-04-14T20:06:17.711Z,1124.13
2019-04-14T20:08:46.758Z,1455.43
2019-04-14T20:11:15.717Z,1197.13
2019-04-14T20:13:46.297Z,1194.07
2019-04-14T20:16:16.948Z,1154.87
2019-04-14T20:18:47.689Z,1165.00
2019-04-14T20:21:18.347Z,1394.60
2019-04-14T20:23:51.819Z,1295.47
2019-04-14T20:26:23.298Z,1258.57
2019-04-14T20:28:53.976Z,1173.17
2019-04-14T20:31:24.566Z,1289.90
2019-04-14T20:33:53.676Z,1304.60
2019-04-14T20:36:22.694Z,1239.00
2019-04-14T20:38:51.740Z,1438.80
2019-04-14T20:41:20.751Z,1388.30
2019-04-14T20:43:49.769Z,1242.80
2019-04-14T20:46:18.705Z,1157.03
2019-04-14T20:48:47.818Z,1326.60
2019-04-14T20:51:16.830Z,1165.33
2019-04-14T20:53:45.820Z,1282.60
2019-04-14T20:56:14.849Z,1277.27
2019-04-14T20:58:43.882Z,1181.30
2019-04-14T21:01:13.657Z,1122.20
2019-04-14T21:03:44.340Z,1193.83
2019-04-14T21:06:15.022Z,1149.90
2019-04-14T21:08:46.682Z,1125.80
2019-04-14T21:11:17.337Z,1144.87
2019-04-14T21:13:48.062Z,1044.43
2019-04-14T21:16:18.736Z,1180.30
2019-04-14T21:18:49.443Z,1238.53
2019-04-14T21:21:20.107Z,1162.20
2019-04-14T21:23:50.767Z,1218.63
2019-04-14T21:26:21.425Z,1321.03
2019-04-14T21:28:52.083Z,1290.87
2019-04-14T21:31:22.741Z,1016.03
2019-04-14T21:33:53.410Z,1103.70
2019-04-14T21:36:24.047Z,981.73
2019-04-14T21:38:54.732Z,1100.53
2019-04-14T21:41:25.371Z,1311.30
2019-04-14T21:43:54.392Z,1071.07
2019-04-14T21:46:23.411Z,1108.63
2019-04-14T21:48:52.454Z,1253.53
2019-04-14T21:51:23.105Z,1104.83
2019-04-14T21:53:52.133Z,1090.50
2019-04-14T21:56:21.728Z,1225.20
2019-04-14T21:58:52.391Z,1201.97
2019-04-14T22:01:23.447Z,1267.90
2019-04-14T22:03:54.171Z,1355.40
2019-04-14T22:06:24.863Z,1356.10
2019-04-14T22:08:55.017Z,1278.67
2019-04-14T22:11:25.732Z,1328.30
2019-04-14T22:13:54.814Z,1264.43
2019-04-14T22:16:23.833Z,1316.47
2019-04-14T22:18:52.997Z,1258.40
2019-04-14T22:21:22.045Z,1294.67
2019-04-14T22:24:01.278Z,1311.90
2019-04-14T22:26:26.213Z,1207.33
2019-04-14T22:28:52.303Z,1062.27
2019-04-14T22:31:21.324Z,1131.20
2019-04-14T22:33:50.411Z,1131.00
2019-04-14T22:36:19.470Z,1202.17
2019-04-14T22:38:48.497Z,1126.30
2019-04-14T22:41:17.526Z,1167.13
2019-04-14T22:43:46.525Z,1135.77
2019-04-14T22:46:15.481Z,1033.47
2019-04-14T22:48:44.635Z,1363.67
2019-04-14T22:51:13.625Z,1392.40
2019-04-14T22:53:42.639Z,1626.27
2019-04-14T22:56:11.661Z,1378.17
2019-04-14T22:58:40.672Z,1439.83
2019-04-14T23:01:11.334Z,1438.03
2019-04-14T23:03:41.906Z,1293.73
2019-04-14T23:06:11.080Z,1172.30
2019-04-14T23:08:41.719Z,1178.90
2019-04-14T23:11:12.318Z,1256.50
2019-04-14T23:13:42.973Z,1281.17
2019-04-14T23:16:13.659Z,1120.63
2019-04-14T23:18:44.317Z,927.60
2019-04-14T23:21:15.009Z,1148.70
2019-04-14T23:23:45.751Z,1257.83
2019-04-14T23:26:14.754Z,1250.93
2019-04-14T23:28:43.833Z,1088.50
2019-04-14T23:31:12.835Z,943.17
2019-04-14T23:33:41.869Z,1032.07
2019-04-14T23:36:10.883Z,1220.33
2019-04-14T23:38:39.981Z,952.93
2019-04-14T23:41:08.931Z,1303.63
2019-04-14T23:43:37.954Z,1326.90
2019-04-14T23:46:06.962Z,1145.77
2019-04-14T23:48:36.001Z,1188.07
2019-04-14T23:51:05.150Z,1406.57
2019-04-14T23:53:34.129Z,1067.20
2019-04-14T23:56:03.219Z,1036.30
2019-04-14T23:58:33.313Z,863.43
